createdAt,value
2022-10-18T00:00:07.410Z,446.95
2022-10-18T00:00:17.420Z,446.99
2022-10-18T00:00:27.427Z,446.94
2022-10-18T00:00:37.413Z,446.94
2022-10-18T00:00:47.417Z,446.98
2022-10-18T00:00:57.417Z,446.86
2022-10-18T00:01:07.418Z,446.93
2022-10-18T00:01:17.416Z,446.92
2022-10-18T00:01:27.418Z,446.93
2022-10-18T00:01:37.431Z,446.91
2022-10-18T00:01:47.453Z,446.92
2022-10-18T00:01:57.458Z,447.00
2022-10-18T00:02:07.470Z,447.00
2022-10-18T00:02:17.442Z,446.95
2022-10-18T00:02:27.520Z,447.04
2022-10-18T00:02:37.435Z,446.98
2022-10-18T00:02:47.425Z,446.87
2022-10-18T00:02:57.427Z,446.82
2022-10-18T00:03:07.425Z,446.95
2022-10-18T00:03:17.424Z,446.93
2022-10-18T00:03:27.428Z,446.86
2022-10-18T00:03:37.470Z,446.95
2022-10-18T00:03:47.431Z,446.96
2022-10-18T00:03:57.428Z,446.96
2022-10-18T00:04:07.429Z,446.97
2022-10-18T00:04:17.433Z,446.92
2022-10-18T00:04:27.432Z,446.94
2022-10-18T00:04:37.443Z,446.96
2022-10-18T00:04:47.439Z,447.04
2022-10-18T00:04:57.436Z,446.94
2022-10-18T00:05:07.438Z,447.03
2022-10-18T00:05:17.441Z,447.06
2022-10-18T00:05:27.433Z,447.00
2022-10-18T00:05:37.445Z,447.02
2022-10-18T00:05:47.438Z,447.02
2022-10-18T00:05:57.421Z,447.00
2022-10-18T00:06:07.438Z,447.08
2022-10-18T00:06:17.446Z,447.03
2022-10-18T00:06:27.440Z,447.09
2022-10-18T00:06:39.875Z,446.98
2022-10-18T00:06:48.471Z,447.04
2022-10-18T00:06:57.441Z,447.06
2022-10-18T00:07:07.438Z,446.93
2022-10-18T00:07:17.444Z,446.97
2022-10-18T00:07:27.545Z,446.96
2022-10-18T00:07:37.443Z,446.89
2022-10-18T00:07:47.468Z,446.87
2022-10-18T00:07:57.444Z,446.94
2022-10-18T00:08:07.449Z,446.90
2022-10-18T00:08:17.443Z,446.93
2022-10-18T00:08:27.443Z,446.90
2022-10-18T00:08:37.443Z,446.86
2022-10-18T00:08:47.448Z,446.93
2022-10-18T00:08:57.466Z,446.97
2022-10-18T00:09:07.446Z,446.90
2022-10-18T00:09:17.450Z,446.96
2022-10-18T00:09:27.455Z,446.99
2022-10-18T00:09:37.471Z,447.06
2022-10-18T00:09:47.453Z,447.05
2022-10-18T00:09:57.468Z,447.06
2022-10-18T00:10:07.458Z,447.15
2022-10-18T00:10:17.462Z,447.14
2022-10-18T00:10:27.454Z,447.18
2022-10-18T00:10:37.456Z,447.15
2022-10-18T00:10:47.459Z,447.13
2022-10-18T00:10:57.473Z,447.15
2022-10-18T00:11:07.458Z,447.19
2022-10-18T00:11:17.459Z,447.29
2022-10-18T00:11:27.463Z,447.28
2022-10-18T00:11:37.468Z,447.26
2022-10-18T00:11:47.463Z,447.26
2022-10-18T00:11:57.471Z,447.30
2022-10-18T00:12:07.464Z,447.26
2022-10-18T00:12:17.465Z,447.20
2022-10-18T00:12:27.470Z,447.15
2022-10-18T00:12:37.525Z,447.24
2022-10-18T00:12:47.481Z,447.22
2022-10-18T00:12:57.485Z,447.19
2022-10-18T00:13:07.468Z,447.25
2022-10-18T00:13:17.467Z,447.25
2022-10-18T00:13:27.470Z,447.39
2022-10-18T00:13:37.474Z,447.36
2022-10-18T00:13:47.468Z,447.40
2022-10-18T00:13:57.494Z,447.43
2022-10-18T00:14:07.473Z,447.36
2022-10-18T00:14:17.473Z,447.43
2022-10-18T00:14:27.478Z,447.37
2022-10-18T00:14:37.479Z,447.38
2022-10-18T00:14:47.486Z,447.34
2022-10-18T00:14:57.498Z,447.50
2022-10-18T00:15:07.487Z,447.49
2022-10-18T00:15:17.485Z,447.51
2022-10-18T00:15:27.482Z,447.56
2022-10-18T00:15:37.482Z,447.53
2022-10-18T00:15:47.479Z,447.66
2022-10-18T00:15:57.499Z,447.63
2022-10-18T00:16:07.486Z,447.61
2022-10-18T00:16:17.486Z,447.62
2022-10-18T00:16:27.482Z,447.70
2022-10-18T00:16:37.490Z,447.58
2022-10-18T00:16:47.488Z,447.68
2022-10-18T00:16:57.499Z,447.66
2022-10-18T00:17:07.491Z,447.65
2022-10-18T00:17:17.487Z,447.70
2022-10-18T00:17:27.619Z,447.72
2022-10-18T00:17:37.490Z,447.73
2022-10-18T00:17:47.491Z,447.68
2022-10-18T00:17:57.488Z,447.74
2022-10-18T00:18:07.514Z,447.71
2022-10-18T00:18:17.488Z,447.74
2022-10-18T00:18:27.491Z,447.75
2022-10-18T00:18:37.489Z,447.67
2022-10-18T00:18:47.492Z,447.83
2022-10-18T00:18:57.495Z,447.77
2022-10-18T00:19:07.525Z,447.79
2022-10-18T00:19:17.498Z,447.84
2022-10-18T00:19:29.308Z,447.87
2022-10-18T00:19:37.499Z,447.80
2022-10-18T00:19:47.494Z,447.75
2022-10-18T00:19:57.495Z,447.83
2022-10-18T00:20:07.516Z,447.71
2022-10-18T00:20:17.499Z,447.74
2022-10-18T00:20:27.496Z,447.78
2022-10-18T00:20:37.505Z,447.76
2022-10-18T00:20:47.497Z,447.60
2022-10-18T00:20:57.499Z,447.69
2022-10-18T00:21:07.498Z,447.67
2022-10-18T00:21:17.508Z,447.55
2022-10-18T00:21:27.506Z,447.58
2022-10-18T00:21:37.515Z,447.56
2022-10-18T00:21:47.499Z,447.56
2022-10-18T00:21:57.511Z,447.57
2022-10-18T00:22:07.504Z,447.57
2022-10-18T00:22:17.507Z,447.54
2022-10-18T00:22:27.577Z,447.56
2022-10-18T00:22:37.500Z,447.54
2022-10-18T00:22:47.503Z,447.60
2022-10-18T00:22:57.505Z,447.65
2022-10-18T00:23:07.508Z,447.59
2022-10-18T00:23:17.509Z,447.60
2022-10-18T00:23:27.510Z,447.64
2022-10-18T00:23:37.529Z,447.62
2022-10-18T00:23:47.506Z,447.61
2022-10-18T00:23:57.516Z,447.66
2022-10-18T00:24:07.513Z,447.73
2022-10-18T00:24:17.514Z,447.72
2022-10-18T00:24:27.511Z,447.70
2022-10-18T00:24:37.527Z,447.70
2022-10-18T00:24:47.515Z,447.78
2022-10-18T00:24:57.516Z,447.79
2022-10-18T00:25:07.518Z,447.80
2022-10-18T00:25:17.526Z,447.75
2022-10-18T00:25:27.520Z,447.76
2022-10-18T00:25:37.544Z,447.76
2022-10-18T00:25:47.523Z,447.72
2022-10-18T00:25:57.551Z,447.66
2022-10-18T00:26:07.518Z,447.75
2022-10-18T00:26:17.520Z,447.72
2022-10-18T00:26:27.528Z,447.77
2022-10-18T00:26:37.544Z,447.71
2022-10-18T00:26:47.526Z,447.65
2022-10-18T00:26:57.524Z,447.58
2022-10-18T00:27:07.527Z,447.58
2022-10-18T00:27:17.524Z,447.68
2022-10-18T00:27:27.535Z,447.62
2022-10-18T00:27:37.543Z,447.64
2022-10-18T00:27:47.528Z,447.59
2022-10-18T00:27:57.532Z,447.51
2022-10-18T00:28:07.530Z,447.52
2022-10-18T01:05:55.541Z,446.85
2022-10-18T01:06:05.178Z,446.85
2022-10-18T01:06:15.200Z,446.91
2022-10-18T01:06:25.180Z,446.90
2022-10-18T01:06:35.179Z,446.87
2022-10-18T01:06:45.286Z,446.90
2022-10-18T01:07:05.183Z,446.84
2022-10-18T01:07:15.182Z,446.83
2022-10-18T01:07:25.216Z,446.80
2022-10-18T01:07:35.202Z,446.81
2022-10-18T01:07:45.184Z,446.75
2022-10-18T01:07:55.187Z,446.81
2022-10-18T01:08:05.187Z,446.79
2022-10-18T01:08:15.187Z,446.74
2022-10-18T01:08:25.188Z,446.70
2022-10-18T01:08:35.206Z,446.77
2022-10-18T01:08:45.194Z,446.70
2022-10-18T01:08:55.191Z,446.66
2022-10-18T01:09:05.193Z,446.67
2022-10-18T01:09:15.192Z,446.65
2022-10-18T01:09:25.195Z,446.58
2022-10-18T01:09:35.212Z,446.63
2022-10-18T01:09:45.195Z,446.66
2022-10-18T01:09:55.200Z,446.61
2022-10-18T01:10:05.219Z,446.58
2022-10-18T01:10:15.204Z,446.67
2022-10-18T01:10:25.199Z,446.61
2022-10-18T01:10:35.199Z,446.64
2022-10-18T01:10:45.222Z,446.62
2022-10-18T01:10:55.200Z,446.57
2022-10-18T01:11:05.205Z,446.64
2022-10-18T01:11:15.212Z,446.58
2022-10-18T01:11:25.209Z,446.57
2022-10-18T01:11:35.203Z,446.58
2022-10-18T01:11:45.228Z,446.70
2022-10-18T01:11:55.202Z,446.70
2022-10-18T01:12:05.204Z,446.69
2022-10-18T01:12:15.209Z,446.78
2022-10-18T01:12:25.207Z,446.76
2022-10-18T01:12:35.206Z,446.74
2022-10-18T01:12:45.231Z,446.79
2022-10-18T01:12:55.206Z,446.76
2022-10-18T01:13:05.209Z,446.88
2022-10-18T01:13:15.207Z,446.88
2022-10-18T01:13:25.961Z,446.90
2022-10-18T01:13:35.211Z,446.92
2022-10-18T01:13:45.236Z,447.01
2022-10-18T01:13:55.209Z,447.02
2022-10-18T01:14:05.212Z,446.99
2022-10-18T01:14:15.214Z,447.04
2022-10-18T01:14:25.214Z,446.97
2022-10-18T01:14:35.216Z,447.02
2022-10-18T02:14:40.781Z,448.06
2022-10-18T02:14:50.226Z,448.08
2022-10-18T02:15:00.208Z,448.15
2022-10-18T02:15:10.195Z,448.16
2022-10-18T02:15:20.195Z,448.22
2022-10-18T02:15:30.211Z,448.20
2022-10-18T02:15:40.206Z,448.14
2022-10-18T02:15:50.194Z,448.24
2022-10-18T02:16:00.206Z,448.24
2022-10-18T02:16:10.212Z,448.25
2022-10-18T02:16:20.212Z,448.29
2022-10-18T02:16:30.202Z,448.36
2022-10-18T02:16:40.207Z,448.40
2022-10-18T02:16:50.215Z,448.39
2022-10-18T02:17:00.210Z,448.49
2022-10-18T02:17:10.211Z,448.50
2022-10-18T02:17:20.207Z,448.51
2022-10-18T02:17:30.207Z,448.57
2022-10-18T02:17:40.228Z,448.63
2022-10-18T02:17:50.209Z,448.63
2022-10-18T02:18:00.203Z,448.67
2022-10-18T02:18:10.212Z,448.75
2022-10-18T02:18:20.209Z,448.76
2022-10-18T02:18:30.210Z,448.78
2022-10-18T02:18:40.232Z,448.82
2022-10-18T02:18:50.210Z,448.90
2022-10-18T02:19:00.216Z,449.00
2022-10-18T02:19:10.208Z,449.02
2022-10-18T02:19:20.297Z,449.18
2022-10-18T02:19:30.224Z,449.15
2022-10-18T02:19:40.218Z,449.06
2022-10-18T02:19:50.229Z,449.09
2022-10-18T02:20:00.335Z,449.12
2022-10-18T02:20:10.214Z,449.20
2022-10-18T02:20:20.217Z,449.19
2022-10-18T02:20:30.218Z,449.20
2022-10-18T02:20:40.215Z,449.22
2022-10-18T02:20:50.241Z,449.13
2022-10-18T02:21:00.218Z,449.15
2022-10-18T02:21:10.217Z,449.12
2022-10-18T02:21:20.224Z,449.17
2022-10-18T02:21:30.222Z,449.03
2022-10-18T02:21:40.220Z,449.01
2022-10-18T02:21:50.257Z,449.08
2022-10-18T02:22:00.234Z,449.04
2022-10-18T02:22:10.222Z,448.99
2022-10-18T02:22:20.228Z,449.01
2022-10-18T02:22:30.617Z,448.92
2022-10-18T02:22:40.225Z,448.86
2022-10-18T02:22:50.226Z,448.94
2022-10-18T02:23:00.241Z,448.88
2022-10-18T02:23:10.228Z,448.83
2022-10-18T02:23:20.224Z,448.90
2022-10-18T02:23:30.227Z,448.84
2022-10-18T02:23:40.228Z,448.87
2022-10-18T02:23:50.227Z,448.95
2022-10-18T02:24:00.245Z,448.92
2022-10-18T02:24:10.229Z,448.95
2022-10-18T02:24:20.232Z,448.92
2022-10-18T02:24:30.231Z,449.01
2022-10-18T02:24:40.236Z,448.97
2022-10-18T02:24:50.236Z,449.03
2022-10-18T02:25:00.276Z,449.07
2022-10-18T02:25:10.238Z,449.06
2022-10-18T02:25:20.238Z,449.00
2022-10-18T02:25:30.240Z,448.99
2022-10-18T02:25:40.240Z,449.02
2022-10-18T02:25:50.234Z,449.08
2022-10-18T02:26:00.263Z,449.04
2022-10-18T02:26:10.239Z,449.11
2022-10-18T02:26:20.237Z,449.13
2022-10-18T02:26:30.236Z,449.07
2022-10-18T02:26:40.238Z,449.13
2022-10-18T02:26:50.241Z,449.09
2022-10-18T02:27:00.261Z,449.17
2022-10-18T02:27:10.239Z,449.13
2022-10-18T02:27:20.243Z,449.11
2022-10-18T02:27:30.252Z,449.18
2022-10-18T02:27:40.240Z,449.10
2022-10-18T02:27:50.245Z,449.21
2022-10-18T02:28:00.256Z,449.23
2022-10-18T02:28:10.348Z,449.23
2022-10-18T02:28:20.283Z,449.31
2022-10-18T02:28:30.251Z,449.33
2022-10-18T02:28:40.247Z,449.43
2022-10-18T02:28:50.249Z,449.52
2022-10-18T02:29:00.252Z,449.53
2022-10-18T02:29:10.268Z,449.57
2022-10-18T02:29:20.248Z,449.59
2022-10-18T02:29:30.257Z,449.64
2022-10-18T02:29:40.251Z,449.60
2022-10-18T02:29:50.258Z,449.60
2022-10-18T02:30:00.287Z,449.66
2022-10-18T02:30:10.270Z,449.56
2022-10-18T02:30:20.258Z,449.64
2022-10-18T02:30:30.263Z,449.65
2022-10-18T02:30:40.255Z,449.63
2022-10-18T02:30:50.256Z,449.65
2022-10-18T02:31:00.258Z,449.69
2022-10-18T02:31:10.263Z,449.76
2022-10-18T02:31:20.271Z,449.74
2022-10-18T02:31:30.270Z,449.79
2022-10-18T02:31:40.263Z,449.75
2022-10-18T02:31:50.263Z,449.77
2022-10-18T02:32:00.267Z,449.77
2022-10-18T02:32:10.263Z,449.69
2022-10-18T02:32:20.275Z,449.89
2022-10-18T02:32:30.574Z,449.66
2022-10-18T02:32:40.264Z,449.66
2022-10-18T02:32:50.269Z,449.55
2022-10-18T02:33:00.265Z,449.63
2022-10-18T02:33:10.266Z,449.57
2022-10-18T02:33:20.280Z,449.56
2022-10-18T02:33:30.270Z,449.60
2022-10-18T02:33:40.290Z,449.54
2022-10-18T02:33:50.269Z,449.84
2022-10-18T02:34:00.285Z,449.58
2022-10-18T02:34:10.278Z,449.63
2022-10-18T02:34:20.291Z,449.48
2022-10-18T02:34:30.273Z,449.42
2022-10-18T02:34:40.276Z,449.58
2022-10-18T02:34:50.277Z,449.49
2022-10-18T02:35:00.275Z,449.67
2022-10-18T02:35:10.282Z,449.57
2022-10-18T02:35:20.300Z,449.61
2022-10-18T02:35:30.279Z,449.69
2022-10-18T02:35:40.277Z,449.77
2022-10-18T02:35:50.286Z,449.77
2022-10-18T02:36:00.280Z,449.79
2022-10-18T02:36:10.279Z,449.79
2022-10-18T02:36:20.302Z,449.79
2022-10-18T02:36:30.281Z,449.75
2022-10-18T02:36:40.285Z,449.86
2022-10-18T02:36:50.284Z,449.86
2022-10-18T02:37:00.287Z,449.88
2022-10-18T02:37:10.284Z,449.88
2022-10-18T02:37:20.326Z,449.90
2022-10-18T02:37:30.315Z,450.11
2022-10-18T02:37:40.288Z,450.12
2022-10-18T02:37:50.287Z,450.06
2022-10-18T02:38:00.287Z,450.17
2022-10-18T02:38:10.300Z,450.01
2022-10-18T02:38:20.301Z,450.04
2022-10-18T02:38:30.295Z,450.02
2022-10-18T02:38:40.289Z,450.17
2022-10-18T02:38:50.291Z,450.22
2022-10-18T02:39:00.291Z,450.18
2022-10-18T02:39:10.290Z,450.24
2022-10-18T02:39:20.312Z,450.25
2022-10-18T02:39:30.295Z,450.36
2022-10-18T02:39:40.296Z,450.35
2022-10-18T02:39:50.302Z,450.44
2022-10-18T02:40:00.297Z,450.51
2022-10-18T02:40:10.297Z,450.28
2022-10-18T02:40:20.319Z,450.44
2022-10-18T02:40:30.301Z,450.45
2022-10-18T02:40:40.302Z,450.65
2022-10-18T02:40:50.304Z,450.62
2022-10-18T02:41:00.300Z,450.71
2022-10-18T02:41:10.302Z,450.83
2022-10-18T02:41:20.321Z,450.81
2022-10-18T02:41:30.305Z,450.80
2022-10-18T02:41:40.306Z,450.89
2022-10-18T02:41:50.311Z,450.94
2022-10-18T02:42:00.304Z,450.99
2022-10-18T02:42:10.307Z,450.99
2022-10-18T02:42:20.328Z,451.14
2022-10-18T02:42:30.611Z,451.15
2022-10-18T02:42:40.309Z,451.20
2022-10-18T02:42:50.309Z,451.20
2022-10-18T02:43:00.312Z,451.25
2022-10-18T02:43:10.307Z,451.37
2022-10-18T02:43:20.336Z,451.38
2022-10-18T02:43:30.312Z,451.45
2022-10-18T02:43:40.319Z,451.49
2022-10-18T02:43:50.318Z,451.48
2022-10-18T02:44:00.312Z,451.57
2022-10-18T02:44:10.312Z,451.58
2022-10-18T02:44:20.325Z,451.56
2022-10-18T02:44:30.330Z,451.52
2022-10-18T02:44:40.315Z,451.62
2022-10-18T02:44:50.322Z,451.58
2022-10-18T02:45:00.318Z,451.56
2022-10-18T02:45:10.315Z,451.59
2022-10-18T02:45:20.320Z,451.57
2022-10-18T02:45:30.318Z,451.54
2022-10-18T02:45:40.333Z,451.53
2022-10-18T02:45:50.326Z,451.61
2022-10-18T02:46:00.324Z,451.54
2022-10-18T02:46:10.327Z,451.52
2022-10-18T02:46:20.390Z,451.55
2022-10-18T02:46:30.321Z,451.55
2022-10-18T02:46:40.320Z,451.61
2022-10-18T02:46:50.346Z,451.63
2022-10-18T02:47:00.330Z,451.61
2022-10-18T02:47:10.326Z,451.71
2022-10-18T02:47:20.323Z,451.77
2022-10-18T02:47:30.511Z,451.77
2022-10-18T02:47:40.329Z,451.79
2022-10-18T02:47:50.329Z,451.90
2022-10-18T02:48:00.344Z,451.94
2022-10-18T02:48:10.330Z,451.96
2022-10-18T02:48:20.338Z,452.05
2022-10-18T02:48:30.330Z,452.07
2022-10-18T02:48:40.332Z,452.20
2022-10-18T02:48:50.337Z,452.26
2022-10-18T02:49:00.351Z,452.22
2022-10-18T02:49:10.331Z,452.35
2022-10-18T02:49:20.332Z,452.39
2022-10-18T02:49:30.339Z,452.34
2022-10-18T02:49:40.333Z,452.35
2022-10-18T02:49:50.341Z,452.46
2022-10-18T02:50:00.367Z,452.43
2022-10-18T02:50:10.336Z,452.40
2022-10-18T02:50:20.341Z,452.46
2022-10-18T02:50:30.337Z,452.45
2022-10-18T02:50:40.339Z,452.39
2022-10-18T02:50:50.346Z,452.32
2022-10-18T02:51:00.342Z,452.38
2022-10-18T02:51:10.346Z,452.31
2022-10-18T02:51:20.365Z,452.25
2022-10-18T02:51:30.343Z,452.30
2022-10-18T02:51:40.346Z,452.16
2022-10-18T02:51:50.347Z,452.21
2022-10-18T02:52:00.341Z,452.09
2022-10-18T02:52:10.351Z,452.05
2022-10-18T02:52:20.360Z,452.02
2022-10-18T02:52:30.345Z,451.95
2022-10-18T02:52:40.347Z,452.03
2022-10-18T02:52:50.345Z,452.02
2022-10-18T02:53:00.348Z,451.94
2022-10-18T02:53:10.362Z,451.91
2022-10-18T02:53:20.378Z,452.03
2022-10-18T02:53:30.353Z,452.05
2022-10-18T02:53:40.360Z,452.04
2022-10-18T02:53:50.380Z,452.05
2022-10-18T02:54:00.350Z,452.05
2022-10-18T02:54:10.355Z,452.09
2022-10-18T02:54:20.352Z,452.19
2022-10-18T02:54:30.368Z,452.23
2022-10-18T02:54:40.360Z,452.22
2022-10-18T02:54:50.352Z,452.32
2022-10-18T02:55:00.353Z,452.35
2022-10-18T02:55:10.362Z,452.34
2022-10-18T02:55:20.404Z,452.44
2022-10-18T02:55:30.382Z,452.53
2022-10-18T02:55:40.366Z,452.59
2022-10-18T02:55:50.360Z,452.58
2022-10-18T02:56:00.357Z,452.63
2022-10-18T02:56:10.361Z,452.68
2022-10-18T02:56:20.360Z,452.80
2022-10-18T02:56:30.374Z,452.79
2022-10-18T02:56:40.365Z,452.80
2022-10-18T02:56:50.359Z,452.83
2022-10-18T02:57:00.362Z,452.87
2022-10-18T02:57:10.369Z,452.93
2022-10-18T02:57:20.364Z,452.92
2022-10-18T02:57:30.572Z,453.01
2022-10-18T02:57:40.387Z,453.05
2022-10-18T02:57:50.366Z,453.04
2022-10-18T02:58:00.369Z,452.98
2022-10-18T02:58:10.374Z,453.01
2022-10-18T02:58:20.375Z,452.99
2022-10-18T02:58:30.373Z,452.97
2022-10-18T02:58:40.392Z,453.05
2022-10-18T02:58:50.373Z,453.01
2022-10-18T02:59:00.374Z,452.89
2022-10-18T02:59:10.371Z,453.05
2022-10-18T02:59:20.377Z,453.03
2022-10-18T02:59:30.372Z,452.99
2022-10-18T03:02:40.214Z,452.10
2022-10-18T03:02:50.213Z,452.05
2022-10-18T03:03:00.320Z,452.10
2022-10-18T03:03:10.208Z,452.04
2022-10-18T03:03:20.212Z,451.92
2022-10-18T03:03:30.324Z,451.90
2022-10-18T03:03:40.211Z,451.79
2022-10-18T03:03:50.210Z,451.84
2022-10-18T03:04:00.222Z,451.75
2022-10-18T03:04:10.212Z,451.63
2022-10-18T03:04:20.230Z,451.55
2022-10-18T03:04:30.224Z,451.56
2022-10-18T03:04:40.218Z,451.59
2022-10-18T03:04:50.211Z,451.51
2022-10-18T03:05:00.332Z,451.40
2022-10-18T03:05:10.223Z,451.35
2022-10-18T03:05:20.221Z,451.36
2022-10-18T03:05:30.220Z,451.33
2022-10-18T03:05:40.255Z,451.27
2022-10-18T03:05:50.217Z,451.23
2022-10-18T03:06:00.226Z,451.24
2022-10-18T03:06:10.225Z,451.15
2022-10-18T03:06:20.220Z,451.05
2022-10-18T03:06:30.228Z,451.13
2022-10-18T03:06:40.361Z,451.08
2022-10-18T03:06:50.228Z,451.02
2022-10-18T03:07:00.225Z,451.04
2022-10-18T03:07:10.231Z,450.96
2022-10-18T03:07:20.229Z,450.93
2022-10-18T03:07:30.486Z,450.88
2022-10-18T03:07:40.228Z,450.91
2022-10-18T03:07:50.386Z,450.83
2022-10-18T03:08:00.231Z,450.84
2022-10-18T03:08:10.232Z,450.83
2022-10-18T03:08:20.227Z,450.77
2022-10-18T03:08:30.243Z,450.78
2022-10-18T03:08:40.240Z,450.77
2022-10-18T03:08:50.241Z,450.78
2022-10-18T03:09:00.373Z,450.73
2022-10-18T03:09:10.236Z,450.72
2022-10-18T03:09:20.232Z,450.70
2022-10-18T03:09:30.257Z,450.76
2022-10-18T03:09:40.257Z,450.84
2022-10-18T03:09:50.231Z,450.83
2022-10-18T03:23:53.911Z,452.17
2022-10-18T03:27:59.830Z,452.23
2022-10-18T03:28:09.824Z,452.32
2022-10-18T03:28:20.448Z,452.32
2022-10-18T03:28:29.807Z,452.36
2022-10-18T03:28:39.831Z,452.33
2022-10-18T03:28:49.891Z,452.43
2022-10-18T03:29:00.487Z,452.46
2022-10-18T03:29:09.922Z,452.44
2022-10-18T03:29:21.418Z,452.45
2022-10-18T03:29:29.774Z,452.53
2022-10-18T03:29:39.810Z,452.51
2022-10-18T03:29:49.801Z,452.48
2022-10-18T03:32:43.893Z,452.62
2022-10-18T03:32:47.318Z,452.72
2022-10-18T03:32:57.292Z,452.76
2022-10-18T03:33:07.291Z,452.72
2022-10-18T03:33:17.286Z,452.82
2022-10-18T03:33:27.302Z,452.81
2022-10-18T03:33:37.310Z,452.79
2022-10-18T03:34:00.336Z,452.78
2022-10-18T03:34:00.689Z,452.88
2022-10-18T03:34:10.660Z,452.92
2022-10-18T03:34:20.676Z,452.90
2022-10-18T03:34:30.679Z,452.92
2022-10-18T03:34:40.668Z,453.02
2022-10-18T03:34:50.666Z,453.02
2022-10-18T03:35:00.692Z,453.01
2022-10-18T03:35:10.663Z,453.11
2022-10-18T03:35:20.667Z,453.15
2022-10-18T03:35:30.672Z,453.12
2022-10-18T03:35:40.671Z,453.22
2022-10-18T03:35:50.669Z,453.20
2022-10-18T03:36:00.699Z,453.30
2022-10-18T03:36:10.680Z,453.24
2022-10-18T03:36:20.675Z,453.34
2022-10-18T03:36:30.680Z,453.36
2022-10-18T03:36:40.670Z,453.45
2022-10-18T03:36:50.671Z,453.44
2022-10-18T03:37:03.352Z,453.47
2022-10-18T03:37:10.696Z,453.48
2022-10-18T03:37:20.674Z,453.49
2022-10-18T03:37:30.675Z,453.59
2022-10-18T03:37:40.673Z,453.56
2022-10-18T03:37:50.712Z,453.54
2022-10-18T03:38:00.681Z,453.62
2022-10-18T03:38:10.691Z,453.62
2022-10-18T03:38:20.680Z,453.56
2022-10-18T03:38:30.674Z,453.55
2022-10-18T03:38:40.676Z,453.60
2022-10-18T03:38:50.679Z,453.60
2022-10-18T03:39:00.680Z,453.58
2022-10-18T03:39:10.700Z,453.57
2022-10-18T03:39:20.677Z,453.52
2022-10-18T03:39:30.681Z,453.53
2022-10-18T03:39:40.685Z,453.43
2022-10-18T03:39:50.689Z,453.45
2022-10-18T03:40:00.681Z,453.41
2022-10-18T03:40:10.704Z,453.41
2022-10-18T03:40:20.761Z,453.34
2022-10-18T03:40:40.687Z,453.36
2022-10-18T03:40:50.688Z,453.35
2022-10-18T03:41:00.688Z,453.26
2022-10-18T03:41:10.701Z,453.31
2022-10-18T03:41:20.725Z,453.29
2022-10-18T03:41:30.695Z,453.27
2022-10-18T03:41:40.727Z,453.31
2022-10-18T03:41:50.693Z,453.24
2022-10-18T03:42:00.702Z,453.33
2022-10-18T03:42:10.720Z,453.32
2022-10-18T03:42:20.698Z,453.29
2022-10-18T03:42:31.112Z,453.26
2022-10-18T03:42:40.692Z,453.37
2022-10-18T03:42:50.698Z,453.34
2022-10-18T03:43:00.697Z,453.33
2022-10-18T03:43:10.716Z,453.40
2022-10-18T03:43:20.721Z,453.39
2022-10-18T03:43:30.701Z,453.45
2022-10-18T03:43:40.700Z,453.45
2022-10-18T03:43:50.706Z,453.48
2022-10-18T03:44:00.700Z,453.45
2022-10-18T03:44:10.702Z,453.45
2022-10-18T03:44:20.727Z,453.52
2022-10-18T03:44:30.712Z,453.51
2022-10-18T03:44:40.711Z,453.52
2022-10-18T03:44:50.708Z,453.50
2022-10-18T03:45:00.731Z,453.53
2022-10-18T03:45:10.707Z,453.60
2022-10-18T03:45:20.733Z,453.61
2022-10-18T03:45:31.599Z,453.61
2022-10-18T03:45:40.726Z,453.58
2022-10-18T03:45:50.715Z,453.58
2022-10-18T03:46:00.709Z,453.56
2022-10-18T03:46:10.729Z,453.64
2022-10-18T03:46:20.729Z,453.65
2022-10-18T03:46:30.742Z,453.64
2022-10-18T03:46:40.712Z,453.70
2022-10-18T03:46:50.722Z,453.69
2022-10-18T03:47:00.715Z,453.80
2022-10-18T03:47:10.711Z,453.80
2022-10-18T03:47:20.746Z,453.77
2022-10-18T03:47:30.738Z,453.85
2022-10-18T03:47:40.718Z,453.85
2022-10-18T03:47:50.730Z,453.82
2022-10-18T03:48:00.733Z,453.80
2022-10-18T03:48:10.721Z,453.89
2022-10-18T03:48:20.735Z,453.82
2022-10-18T03:48:30.721Z,453.88
2022-10-18T03:48:40.753Z,453.84
2022-10-18T03:48:50.773Z,453.84
2022-10-18T03:49:00.724Z,453.88
2022-10-18T03:49:10.726Z,453.88
2022-10-18T03:49:20.762Z,453.85
2022-10-18T03:49:30.801Z,453.81
2022-10-18T03:49:40.757Z,453.94
2022-10-18T03:49:53.233Z,453.91
2022-10-18T03:50:01.741Z,453.96
2022-10-18T03:50:10.728Z,453.94
2022-10-18T03:50:20.750Z,453.92
2022-10-18T03:50:30.728Z,454.02
2022-10-18T03:50:40.734Z,453.98
2022-10-18T03:50:50.738Z,453.99
2022-10-18T03:51:00.750Z,454.09
2022-10-18T03:51:10.750Z,454.05
2022-10-18T03:51:20.730Z,454.15
2022-10-18T03:51:30.720Z,454.15
2022-10-18T03:51:40.735Z,454.10
2022-10-18T03:51:50.732Z,454.11
2022-10-18T03:52:00.759Z,454.13
2022-10-18T03:52:10.741Z,454.11
2022-10-18T03:52:20.735Z,454.07
2022-10-18T03:52:31.137Z,454.00
2022-10-18T03:52:40.738Z,453.90
2022-10-18T03:52:50.742Z,453.95
2022-10-18T03:53:00.748Z,453.91
2022-10-18T03:53:10.741Z,453.87
2022-10-18T03:53:20.738Z,453.80
2022-10-18T03:53:30.771Z,453.74
2022-10-18T03:53:40.747Z,453.76
2022-10-18T03:53:50.741Z,453.67
2022-10-18T03:54:00.760Z,453.66
2022-10-18T03:54:10.750Z,453.70
2022-10-18T03:54:20.743Z,453.66
2022-10-18T03:54:30.743Z,453.59
2022-10-18T03:54:40.755Z,453.51
2022-10-18T03:54:50.785Z,453.54
2022-10-18T03:55:00.761Z,453.47
2022-10-18T03:55:10.747Z,453.53
2022-10-18T03:55:20.751Z,453.49
2022-10-18T03:55:30.746Z,453.47
2022-10-18T03:55:40.748Z,453.45
2022-10-18T03:55:50.766Z,453.42
2022-10-18T03:56:00.773Z,453.37
2022-10-18T03:56:10.751Z,453.34
2022-10-18T03:56:20.751Z,453.39
2022-10-18T03:56:30.753Z,453.34
2022-10-18T03:56:40.759Z,453.31
2022-10-18T03:56:50.756Z,453.30
2022-10-18T03:57:00.753Z,453.26
2022-10-18T03:57:10.773Z,453.25
2022-10-18T03:57:20.761Z,453.20
2022-10-18T03:57:30.757Z,453.19
2022-10-18T03:57:40.763Z,453.21
2022-10-18T03:57:50.762Z,453.15
2022-10-18T03:58:00.759Z,453.18
2022-10-18T03:58:10.766Z,453.14
2022-10-18T03:58:20.850Z,453.09
2022-10-18T03:58:30.831Z,453.12
2022-10-18T03:58:40.774Z,453.08
2022-10-18T03:58:50.764Z,453.03
2022-10-18T03:59:00.765Z,452.98
2022-10-18T03:59:10.770Z,453.01
2022-10-18T03:59:20.766Z,452.99
2022-10-18T03:59:30.789Z,452.92
2022-10-18T03:59:40.773Z,452.98
2022-10-18T03:59:50.771Z,452.96
2022-10-18T04:00:00.770Z,452.88
2022-10-18T04:00:10.768Z,452.84
2022-10-18T04:00:21.313Z,452.89
2022-10-18T04:00:30.773Z,452.80
2022-10-18T04:00:40.786Z,452.86
2022-10-18T04:00:50.780Z,452.85
2022-10-18T04:01:00.776Z,452.80
2022-10-18T04:01:10.787Z,452.85
2022-10-18T04:01:20.882Z,452.82
2022-10-18T04:01:30.809Z,452.89
2022-10-18T04:01:40.811Z,452.86
2022-10-18T04:01:50.833Z,452.86
2022-10-18T04:02:00.870Z,452.89
2022-10-18T04:02:10.797Z,452.88
2022-10-18T04:02:20.782Z,452.92
2022-10-18T04:02:31.022Z,452.95
2022-10-18T04:04:09.000Z,453.16
2022-10-18T04:05:37.945Z,453.31
2022-10-18T04:05:42.718Z,453.32
2022-10-18T04:05:52.802Z,453.33
2022-10-18T04:06:02.686Z,453.33
2022-10-18T04:06:12.720Z,453.41
2022-10-18T04:06:22.724Z,453.44
2022-10-18T04:06:32.791Z,453.41
2022-10-18T04:06:42.748Z,453.39
2022-10-18T04:06:53.422Z,453.37
2022-10-18T04:07:02.768Z,453.49
2022-10-18T04:07:13.443Z,453.44
2022-10-18T04:07:23.424Z,453.46
2022-10-18T04:07:34.453Z,453.45
2022-10-18T04:07:42.712Z,453.48
2022-10-18T04:07:52.704Z,453.47
2022-10-18T04:08:02.727Z,453.47
2022-10-18T04:08:14.457Z,453.48
2022-10-18T04:08:23.483Z,453.54
2022-10-18T04:08:33.466Z,453.52
2022-10-18T04:22:16.813Z,453.48
2022-10-18T04:22:26.800Z,453.49